ADDS METAR Data INFO
IDs: Format: Raw Decoded Include TAF

Data at: 0844 UTC 27 Jun 2017

KORG 270835Z AUTO 00000KT 10SM BKN013 BKN110 24/24 A3002 RMK AO2 T02380235
KORG 270815Z AUTO 00000KT 10SM SCT013 SCT110 24/23 A3002 RMK AO2 T02370232
KORG 270755Z AUTO 00000KT 10SM CLR 24/23 A3002 RMK AO2 T02410232
KORG 270735Z AUTO 00000KT 10SM CLR 25/23 A3003 RMK AO2 T02470234
KORG 270715Z AUTO 00000KT 10SM CLR 25/24 A3003 RMK AO2 T02460237
KORG 270655Z AUTO 17003KT 10SM SCT100 25/24 A3003 RMK AO2 T02500238
KORG 270635Z AUTO 17003KT 10SM BKN100 25/24 A3003 RMK AO2 T02480240
KORG 270615Z AUTO 00000KT 10SM CLR 25/24 A3004 RMK AO2 T02460240
KORG 270555Z AUTO 00000KT 10SM CLR 25/24 A3004 RMK AO2 T02460237 10255 20233 403050222
KORG 270535Z AUTO 00000KT 10SM CLR 25/24 A3004 RMK AO2 T02460235
KORG 270515Z AUTO 13003KT 10SM CLR 25/23 A3005 RMK AO2 T02470233
KORG 270455Z AUTO 13004KT 10SM CLR 24/23 A3005 RMK AO2 T02440231
KORG 270435Z AUTO 00000KT 10SM CLR 25/23 A3006 RMK AO2 LTG DSNT SW T02450230
KORG 270415Z AUTO 12005KT 10SM CLR 24/23 A3005 RMK AO2 T02380233
KORG 270355Z AUTO 00000KT 10SM CLR 24/23 A3005 RMK AO2 T02350230
KORG 270335Z AUTO 00000KT 10SM CLR 24/23 A3005 RMK AO2 T02370230
KORG 270315Z AUTO 00000KT 10SM CLR 24/23 A3003 RMK AO2 T02420230
KORG 270255Z AUTO 00000KT 10SM SCT100 25/23 A3003 RMK AO2 T02450228
KORG 270235Z AUTO 17004KT 10SM OVC100 25/23 A3003 RMK AO2 T02460230
KORG 270215Z AUTO 15005KT 10SM OVC090 25/23 A3004 RMK AO2 T02500230
KORG 270155Z AUTO 17004KT 10SM OVC090 25/23 A3004 RMK AO2 T02500227
KORG 270135Z AUTO 14005KT 10SM VCTS BKN090 25/23 A3004 RMK AO2 LTG DSNT SE T02510231
KORG 270115Z AUTO 12006KT 10SM SCT014 BKN090 26/24 A3004 RMK AO2 LTG DSNT SE T02550236
KORG 270055Z AUTO 00000KT 10SM BKN090 BKN110 25/24 A3004 RMK AO2 LTG DSNT SW T02490238
KORG 270035Z AUTO 04003KT 10SM SCT100 25/24 A3003 RMK AO2 LTG DSNT E T02500236
KORG 270015Z AUTO 01004KT 10SM CLR 25/24 A3003 RMK AO2 LTG DSNT SE T02500235
KORG 262355Z AUTO 01003KT 10SM CLR 25/23 A3002 RMK AO2 LTG DSNT E P0005 60115 T02500234 10304 20234
KORG 262335Z AUTO 01003KT 10SM BKN100 25/23 A3003 RMK AO2 LTG DSNT E P0005 T02460232
KORG 262315Z AUTO 36003KT 10SM VCTS OVC100 25/23 A3003 RMK AO2 LTG DSNT E P0003 T02460231
KORG 262255Z AUTO 02005KT 10SM OVC110 25/23 A3003 RMK AO2 LTG DSNT E P0020 T02460229
KORG 262235Z AUTO 02003KT 10SM SCT028 SCT036 OVC100 25/23 A3003 RMK AO2 LTG DSNT E AND W P0014 T02450228
KORG 262215Z AUTO 03006KT 10SM -DZ SCT034 BKN043 OVC085 25/23 A3003 RMK AO2 LTG DSNT E AND SE P0007 T02460230
KORG 262155Z AUTO 04008KT 10SM SCT042 OVC110 25/23 A3004 RMK AO2 LTG DSNT SW P0033 T02450231
KORG 262135Z AUTO 03009KT 10SM OVC110 25/23 A3004 RMK AO2 LTG DSNT W P0023 T02480234
KORG 262115Z AUTO 04007KT 10SM SCT031 SCT041 OVC100 25/24 A3004 RMK AO2 P0011 T02500237
KORG 262055Z AUTO 03007KT 10SM -RA BKN033 BKN043 OVC090 26/25 A3005 RMK AO2 LTG DSNT N AND NE P0043 60055 T02550245
KORG 262035Z AUTO 03004KT 10SM -DZ SCT031 BKN043 OVC065 25/24 A3005 RMK AO2 LTG DSNT N AND NE P0027 T02510239
KORG 262015Z AUTO 7SM -RA SCT060 BKN070 OVC080 24/23 A3005 RMK AO2 LTG DSNT NE P0012 T02370230
KORG 261955Z AUTO 00000KT 2 1/2SM TSRA SCT007 BKN035 OVC070 24/22 A3006 RMK AO2 LTG DSNT ALQS P0011 T02350222
KORG 261935Z AUTO 31009KT 1SM +RA BKN005 OVC009 24/22 A3007 RMK AO2 LTG DSNT W THRU NE P0004 T02350224
KORG 261915Z AUTO 17003KT 1 1/4SM +RA SCT022 BKN027 OVC037 26/24 A3007 RMK AO2 LTG DSNT NE AND W P0001 T02590239
KORG 261855Z AUTO 00000KT 5SM -RA SCT035 BKN060 BKN075 29/24 A3007 RMK AO2 T02900241
KORG 261835Z AUTO 11003KT 10SM SCT031 SCT090 30/24 A3008 RMK AO2 T02950238
KORG 261815Z AUTO 15003KT 10SM SCT002 SCT090 30/24 A3009 RMK AO2 T02960238
KORG 261755Z AUTO 11004KT 10SM CLR 31/24 A3010 RMK AO2 T03050241 10305 20222
KORG 261735Z AUTO 09005KT 10SM SCT025 29/24 A3011 RMK AO2 T02940237
KORG 261715Z AUTO 11003KT 10SM CLR 30/24 A3011 RMK AO2 T02970239
KORG 261655Z AUTO 12004KT 10SM CLR 29/24 A3011 RMK AO2 T02910237
KORG 261635Z AUTO 08004KT 10SM CLR 29/24 A3012 RMK AO2 T02880238
KORG 261615Z AUTO 00000KT 10SM CLR 28/24 A3013 RMK AO2 T02810235
KORG 261555Z AUTO 04004KT 10SM CLR 28/23 A3013 RMK AO2 T02750231
KORG 261535Z AUTO 06003KT 10SM SCT026 27/23 A3012 RMK AO2 T02710229
KORG 261515Z AUTO 04003KT 10SM BKN026 26/23 A3012 RMK AO2 T02630228
KORG 261455Z AUTO 04004KT 10SM SCT024 26/23 A3013 RMK AO2 T02560225
KORG 261435Z AUTO 06006KT 10SM SCT024 SCT120 25/22 A3013 RMK AO2 T02530224
KORG 261415Z AUTO 07005KT 10SM OVC120 25/22 A3013 RMK AO2 T02470222
KORG 261355Z AUTO 08007KT 10SM BKN120 25/22 A3013 RMK AO2 T02450220
KORG 261335Z AUTO 07004KT 10SM BKN120 24/22 A3013 RMK AO2 T02410219
KORG 261315Z AUTO 07005KT 10SM CLR 24/22 A3012 RMK AO2 T02360220
KORG 261255Z AUTO 04003KT 10SM CLR 23/22 A3011 RMK AO2 T02300215
KORG 261235Z AUTO 04004KT 10SM SCT120 23/22 A3011 RMK AO2 T02260215
KORG 261215Z AUTO 03003KT 10SM CLR 23/22 A3011 RMK AO2 T02250215
KORG 261155Z AUTO 04003KT 10SM -DZ CLR 22/21 A3011 RMK AO2 60001 70009 T02220213 10244 20222
KORG 261135Z AUTO 05003KT 10SM CLR 22/21 A3012 RMK AO2 T02220212
KORG 261115Z AUTO 04003KT 10SM CLR 22/21 A3012 RMK AO2 T02230212
KORG 261055Z AUTO 04003KT 10SM CLR 23/21 A3012 RMK AO2 T02250214
KORG 261035Z AUTO 04004KT 10SM CLR 23/22 A3012 RMK AO2 T02250215
KORG 261015Z AUTO 00000KT 10SM CLR 23/22 A3012 RMK AO2 T02250216
KORG 260955Z AUTO 03003KT 10SM CLR 23/22 A3011 RMK AO2 T02250216
KORG 260935Z AUTO 01003KT 10SM VCTS CLR 23/22 A3010 RMK AO2 LTG DSNT SE T02250217
KORG 260915Z AUTO 00000KT 10SM CLR 23/22 A3010 RMK AO2 LTG DSNT SE T02260218
KORG 260855Z AUTO 00000KT 10SM CLR 23/22 A3011 RMK AO2 60001 T02290218
KORG 260835Z AUTO 03003KT 10SM CLR 23/22 A3011 RMK AO2 T02300220
KORG 260815Z AUTO 03003KT 10SM CLR 23/22 A3011 RMK AO2 T02330221
KORG 260755Z AUTO 04003KT 10SM CLR 24/22 A3012 RMK AO2 T02350222
KORG 260735Z AUTO 03003KT 10SM CLR 24/23 A3011 RMK AO2 T02360226
KORG 260715Z AUTO 00000KT 10SM CLR 24/23 A3011 RMK AO2 T02370228
KORG 260655Z AUTO 07005KT 10SM SCT021 24/23 A3011 RMK AO2 P0001 T02400231
KORG 260635Z AUTO 03003KT 10SM BKN021 OVC028 24/24 A3012 RMK AO2 P0001 T02430240
KORG 260615Z AUTO 01004KT 10SM BKN021 OVC029 24/24 A3013 RMK AO2 P0001 T02420240
KORG 260555Z AUTO 00000KT 10SM OVC019 24/24 A3014 RMK AO2 60008 T02420238 10299 20238 403030238
KORG 260535Z AUTO 00000KT 10SM OVC021 24/24 A3014 RMK AO2 T02400235
KORG 260515Z AUTO 02003KT 10SM BKN023 BKN035 OVC044 24/23 A3015 RMK AO2 T02380232
KORG 260455Z AUTO 00000KT 10SM SCT025 BKN037 BKN110 24/24 A3015 RMK AO2 P0004 T02430239
KORG 260435Z AUTO 00000KT 10SM BKN110 24/24 A3016 RMK AO2 P0004 T02420237
KORG 260415Z AUTO 00000KT 10SM RA SCT065 BKN095 BKN120 24/24 A3015 RMK AO2 P0002 T02440238
KORG 260355Z AUTO 14003KT 4SM RA SCT014 BKN047 OVC085 25/24 A3016 RMK AO2 P0004 T02450238
KORG 260335Z AUTO 00000KT 10SM RA BKN021 OVC030 25/24 A3016 RMK AO2 LTG DSNT SW AND W P0003 T02450237
KORG 260315Z AUTO 21003KT 7SM RA BKN021 OVC030 25/24 A3015 RMK AO2 LTG DSNT S AND SW P0002 T02450236
KORG 260255Z AUTO 18007KT 10SM +RA SCT014 OVC024 25/24 A3014 RMK AO2 LTG DSNT S AND SW T02450235
KORG 260235Z AUTO 17005KT 10SM -TSRA OVC026 26/24 A3013 RMK AO2 LTG DSNT S AND SW T02600236
KORG 260215Z AUTO 00000KT 10SM BKN030 BKN044 BKN050 27/23 A3011 RMK AO2 LTG DSNT S T02660231
KORG 260155Z AUTO 04005KT 10SM VCTS SCT032 SCT042 BKN049 28/24 A3011 RMK AO2 LTG DSNT SW T02760236
KORG 260135Z AUTO 04005KT 10SM SCT030 28/24 A3011 RMK AO2 LTG DSNT S AND SW T02770237
KORG 260115Z AUTO 08006KT 10SM CLR 28/24 A3011 RMK AO2 LTG DSNT SE AND S T02800240
KORG 260055Z AUTO 05006KT 10SM VCTS SCT040 SCT050 29/24 A3010 RMK AO2 LTG DSNT SE T02850238
KORG 260035Z AUTO 05010KT 10SM SCT050 SCT120 29/24 A3008 RMK AO2 LTG DSNT E AND SE T02910237
KORG 260015Z AUTO 04006KT 10SM CLR 30/25 A3008 RMK AO2 LTG DSNT SE T02950246
KORG 252355Z AUTO 03005KT 10SM CLR 30/25 A3008 RMK AO2 LTG DSNT E AND SE T03000247 10303 20260
KORG 252335Z AUTO 05008KT 10SM CLR 30/24 A3008 RMK AO2 LTG DSNT SE T03020242
KORG 252315Z AUTO 04008KT 10SM CLR 30/24 A3008 RMK AO2 LTG DSNT E AND SE T03000244
KORG 252255Z AUTO 02006KT 10SM SCT027 SCT037 SCT044 30/25 A3008 RMK AO2 LTG DSNT E T03010249
KORG 252240Z AUTO 02005KT 10SM SCT027 SCT038 SCT045 30/25 A3009 RMK AO2 T02960249
KORG 252215Z AUTO 02004KT 10SM BKN025 BKN031 OVC055 29/25 A3009 RMK AO2 T02930246
KORG 252155Z AUTO 03005KT 10SM SCT029 BKN036 BKN048 30/25 A3010 RMK AO2 T02980246
KORG 252135Z AUTO 02004KT 10SM SCT019 SCT026 SCT033 30/25 A3010 RMK AO2 T02990251
KORG 252115Z AUTO 04004KT 10SM SCT019 30/26 A3010 RMK AO2 T03000255
KORG 252055Z AUTO 04005KT 10SM SCT017 30/26 A3010 RMK AO2 T02950260


Page loaded:  08:44 UTC  |   01:44 AM Pacific  |   02:44 AM Mountain  |   03:44 AM Central  |   04:44 AM Eastern

 

ADVISORIES

FORECASTS

FORECASTS

OBSERVATIONS

USER TOOLS

ABOUT US